Time;durP1;ratioP1;P1;durP2;ratioP2;P2;SDS_P1;SDS_P2;PMS_P1;PMS_P2;Temp;Humidity;BMP_temperature;BMP_pressure;BME280_temperature;BME280_humidity;BME280_pressure;Samples;Min_cycle;Max_cycle;Signal;HPM_P1;HPM_P2
2022/09/02 00:09:01;;;;;;;1;2.3;;;;;;;9.1;100;99000;;;;
2022/09/02 00:20:01;;;;;;;1;2.3;;;;;;;9;100;99000;;;;
2022/09/02 00:30:01;;;;;;;1.2;2.9;;;;;;;8.8;100;99000;;;;
2022/09/02 00:41:01;;;;;;;1.2;2.9;;;;;;;8.7;100;98990;;;;
2022/09/02 00:52:01;;;;;;;1.2;2.9;;;;;;;8.6;100;98980;;;;
2022/09/02 01:03:01;;;;;;;1.1;2.3;;;;;;;8.6;100;98980;;;;
2022/09/02 01:14:01;;;;;;;1.1;2.3;;;;;;;8.4;100;98980;;;;
2022/09/02 01:24:01;;;;;;;1.1;2.3;;;;;;;8.2;100;98980;;;;
2022/09/02 01:35:01;;;;;;;1;2;;;;;;;8.2;100;98980;;;;
2022/09/02 01:45:02;;;;;;;1;2;;;;;;;8.1;100;98980;;;;
2022/09/02 01:56:01;;;;;;;1;2;;;;;;;8.1;100;98990;;;;
2022/09/02 02:06:01;;;;;;;1.5;4.8;;;;;;;7.9;100;98980;;;;
2022/09/02 02:16:01;;;;;;;1.5;4.8;;;;;;;7.8;100;98970;;;;
2022/09/02 02:27:01;;;;;;;1.5;4.8;;;;;;;7.7;100;98980;;;;
2022/09/02 02:38:01;;;;;;;1.3;3.1;;;;;;;7.6;100;98970;;;;
2022/09/02 02:49:01;;;;;;;1.3;3.1;;;;;;;7.5;100;98970;;;;
2022/09/02 02:59:02;;;;;;;1.5;3.7;;;;;;;7.4;100;98970;;;;
2022/09/02 03:09:01;;;;;;;1.5;3.7;;;;;;;7.3;100;98970;;;;
2022/09/02 03:19:01;;;;;;;1.5;3.7;;;;;;;7.3;100;98960;;;;
2022/09/02 03:29:01;;;;;;;1.6;3;;;;;;;7.1;100;98970;;;;
2022/09/02 03:40:01;;;;;;;1.6;3;;;;;;;7.2;100;98960;;;;
2022/09/02 03:50:01;;;;;;;1.6;3;;;;;;;7.2;100;98970;;;;
2022/09/02 04:00:02;;;;;;;1.3;3.1;;;;;;;7.1;100;98980;;;;
2022/09/02 04:11:01;;;;;;;1.3;3.1;;;;;;;7.2;100;98990;;;;
2022/09/02 04:22:01;;;;;;;1.3;3.1;;;;;;;7.2;100;98990;;;;
2022/09/02 04:32:01;;;;;;;1.9;4.5;;;;;;;7.2;100;99000;;;;
2022/09/02 04:42:02;;;;;;;1.9;4.5;;;;;;;7.4;100;99000;;;;
2022/09/02 04:53:01;;;;;;;1.9;4.5;;;;;;;7.6;100;99010;;;;
2022/09/02 05:03:03;;;;;;;1.9;4.7;;;;;;;7.8;100;99000;;;;
2022/09/02 05:14:01;;;;;;;1.9;4.7;;;;;;;8.1;100;99000;;;;
2022/09/02 05:24:01;;;;;;;1.9;4.7;;;;;;;8.6;100;99000;;;;
2022/09/02 05:35:01;;;;;;;2.9;6.5;;;;;;;9.2;100;99000;;;;
2022/09/02 05:46:01;;;;;;;2.9;6.5;;;;;;;9.7;100;99000;;;;
2022/09/02 05:56:02;;;;;;;2.9;6.5;;;;;;;10.3;100;99000;;;;
2022/09/02 06:07:01;;;;;;;3.8;6.9;;;;;;;10.8;100;99000;;;;
2022/09/02 06:17:01;;;;;;;3.8;6.9;;;;;;;11.3;100;99000;;;;
2022/09/02 06:28:01;;;;;;;3.7;6.8;;;;;;;11.9;100;99010;;;;
2022/09/02 06:38:01;;;;;;;3.7;6.8;;;;;;;12.3;100;99020;;;;
2022/09/02 06:48:01;;;;;;;3.7;6.8;;;;;;;12.7;100;99020;;;;
2022/09/02 06:59:01;;;;;;;3.2;5.8;;;;;;;13;100;99020;;;;
2022/09/02 07:09:01;;;;;;;3.2;5.8;;;;;;;13.4;100;99020;;;;
2022/09/02 07:19:01;;;;;;;3.2;5.8;;;;;;;13.7;100;99030;;;;
2022/09/02 07:29:01;;;;;;;3.5;7.6;;;;;;;14.2;100;99020;;;;
2022/09/02 07:40:01;;;;;;;3.5;7.6;;;;;;;14.4;100;99030;;;;
2022/09/02 07:50:01;;;;;;;3.5;7.6;;;;;;;14.9;100;99030;;;;
2022/09/02 08:00:02;;;;;;;3.3;6.8;;;;;;;15.3;100;99020;;;;
2022/09/02 08:11:01;;;;;;;3.3;6.8;;;;;;;15.6;100;99020;;;;
2022/09/02 08:22:01;;;;;;;3.3;6.8;;;;;;;15.7;100;99020;;;;
2022/09/02 08:33:01;;;;;;;2.2;5.1;;;;;;;16.3;100;99020;;;;
2022/09/02 08:43:02;;;;;;;2.2;5.1;;;;;;;16.6;100;99020;;;;
2022/09/02 08:54:01;;;;;;;2.2;5.1;;;;;;;16.4;100;99020;;;;
2022/09/02 09:05:01;;;;;;;1.7;4.6;;;;;;;17.4;100;99000;;;;
2022/09/02 09:16:01;;;;;;;1.7;4.6;;;;;;;17.4;100;99000;;;;
2022/09/02 09:27:01;;;;;;;1.7;4.6;;;;;;;17.4;100;98990;;;;
2022/09/02 09:37:02;;;;;;;1.6;4.5;;;;;;;17.6;100;98990;;;;
2022/09/02 09:47:02;;;;;;;1.6;4.5;;;;;;;17.9;100;98990;;;;
2022/09/02 09:58:02;;;;;;;1.9;5;;;;;;;18.5;100;98980;;;;
2022/09/02 10:09:01;;;;;;;1.9;5;;;;;;;18.8;99.9;98980;;;;
2022/09/02 10:19:02;;;;;;;1.9;5;;;;;;;18.5;97.3;98980;;;;
2022/09/02 10:29:02;;;;;;;1.9;4.5;;;;;;;19;95.9;98960;;;;
2022/09/02 10:40:02;;;;;;;1.9;4.5;;;;;;;18.5;95.2;98960;;;;
2022/09/02 10:51:01;;;;;;;1.9;4.5;;;;;;;18.3;94.9;98960;;;;
2022/09/02 11:01:01;;;;;;;1.4;4;;;;;;;18;94.8;98960;;;;
2022/09/02 11:11:02;;;;;;;1.4;4;;;;;;;17.7;93.2;98940;;;;
2022/09/02 11:21:02;;;;;;;1.4;4;;;;;;;18.1;92.6;98950;;;;
2022/09/02 11:32:01;;;;;;;1.1;3.4;;;;;;;18.3;92.5;98930;;;;
2022/09/02 11:43:02;;;;;;;1.1;3.4;;;;;;;18.8;87.8;98920;;;;
2022/09/02 11:54:02;;;;;;;1.1;3.4;;;;;;;18.3;87.3;98930;;;;
2022/09/02 12:05:01;;;;;;;1.2;2.5;;;;;;;18.9;84.4;98920;;;;
2022/09/02 12:15:03;;;;;;;1.2;2.5;;;;;;;20.1;82.7;98910;;;;
2022/09/02 12:26:02;;;;;;;1.2;2.5;;;;;;;20.1;77.3;98900;;;;
2022/09/02 12:37:02;;;;;;;1.1;3.7;;;;;;;20;74.4;98880;;;;
2022/09/02 12:48:01;;;;;;;1.1;3.7;;;;;;;20.1;74.7;98870;;;;
2022/09/02 12:58:01;;;;;;;1.1;3.2;;;;;;;20.4;76.7;98880;;;;
2022/09/02 13:09:01;;;;;;;1.1;3.2;;;;;;;19.9;74;98870;;;;
2022/09/02 13:19:02;;;;;;;1.1;3.2;;;;;;;19.8;76.8;98860;;;;
2022/09/02 13:30:01;;;;;;;1.2;4.9;;;;;;;20.2;74.4;98860;;;;
2022/09/02 13:41:02;;;;;;;1.2;4.9;;;;;;;20.3;72;98860;;;;
2022/09/02 13:52:01;;;;;;;1.2;4.9;;;;;;;20.1;76.8;98860;;;;
2022/09/02 14:02:01;;;;;;;1.4;2.8;;;;;;;19.5;76.3;98850;;;;
2022/09/02 14:12:02;;;;;;;1.4;2.8;;;;;;;19.6;79.3;98840;;;;
2022/09/02 14:23:02;;;;;;;1.4;2.8;;;;;;;19.7;77.4;98830;;;;
2022/09/02 14:33:02;;;;;;;1.2;3.1;;;;;;;19.8;77.3;98840;;;;
2022/09/02 14:44:03;;;;;;;1.2;3.1;;;;;;;19.9;77.5;98840;;;;
2022/09/02 14:54:02;;;;;;;1.2;3.1;;;;;;;19.9;77;98830;;;;
2022/09/02 15:05:01;;;;;;;1;3.5;;;;;;;19.3;78;98830;;;;
2022/09/02 15:15:01;;;;;;;1;3.5;;;;;;;19.2;78.8;98830;;;;
2022/09/02 15:25:03;;;;;;;1;3.5;;;;;;;19;81.3;98820;;;;
2022/09/02 15:36:03;;;;;;;1;2.8;;;;;;;18.7;82.6;98820;;;;
2022/09/02 15:46:01;;;;;;;1;2.8;;;;;;;18.6;85.6;98820;;;;
2022/09/02 15:56:02;;;;;;;1;2.8;;;;;;;18.5;82.5;98820;;;;
2022/09/02 16:07:02;;;;;;;1.3;3.4;;;;;;;18.4;85;98820;;;;
2022/09/02 16:17:02;;;;;;;1.3;3.4;;;;;;;18.3;85.5;98810;;;;
2022/09/02 16:28:02;;;;;;;1.2;4.9;;;;;;;17.9;86.7;98810;;;;
2022/09/02 16:38:02;;;;;;;1.2;4.9;;;;;;;17.7;89.2;98810;;;;
2022/09/02 16:48:02;;;;;;;1.2;4.9;;;;;;;17.4;88.6;98810;;;;
2022/09/02 16:59:02;;;;;;;1.2;2.7;;;;;;;17.2;91.3;98800;;;;
2022/09/02 17:09:02;;;;;;;1.2;2.7;;;;;;;17.1;91.5;98800;;;;
2022/09/02 17:20:02;;;;;;;1.2;2.7;;;;;;;17;93.6;98810;;;;
2022/09/02 17:30:02;;;;;;;1.2;3.6;;;;;;;16.8;95.3;98800;;;;
2022/09/02 17:42:06;;;;;;;1.2;3.6;;;;;;;16.6;97.2;98800;;;;
2022/09/02 17:51:02;;;;;;;1.2;3.6;;;;;;;16.3;98.5;98800;;;;
2022/09/02 18:02:02;;;;;;;1.9;3.9;;;;;;;16;99.2;98810;;;;
2022/09/02 18:13:02;;;;;;;1.9;3.9;;;;;;;15.9;99.2;98810;;;;
2022/09/02 18:24:02;;;;;;;1.9;3.9;;;;;;;15.6;100;98800;;;;
2022/09/02 18:35:02;;;;;;;2;5.9;;;;;;;15.3;100;98820;;;;
2022/09/02 18:45:02;;;;;;;2;5.9;;;;;;;15;100;98820;;;;
2022/09/02 18:56:02;;;;;;;2;5.9;;;;;;;14.8;100;98810;;;;
2022/09/02 19:18:02;;;;;;;2.7;7.7;;;;;;;14.3;100;98830;;;;
2022/09/02 19:28:04;;;;;;;2.4;5;;;;;;;14.2;100;98820;;;;
2022/09/02 19:38:02;;;;;;;2.4;5;;;;;;;14.2;100;98830;;;;
2022/09/02 19:48:04;;;;;;;2.4;5;;;;;;;14.3;100;98830;;;;
2022/09/02 19:58:02;;;;;;;2.8;6.8;;;;;;;14.2;100;98840;;;;
2022/09/02 20:09:02;;;;;;;2.8;6.8;;;;;;;14.2;100;98830;;;;
2022/09/02 20:19:02;;;;;;;2.8;6.8;;;;;;;14.1;100;98820;;;;
2022/09/02 20:29:02;;;;;;;3.7;7.1;;;;;;;13.9;100;98830;;;;
2022/09/02 20:39:02;;;;;;;3.7;7.1;;;;;;;13.7;100;98820;;;;
2022/09/02 20:49:02;;;;;;;3.7;7.1;;;;;;;13.5;100;98820;;;;
2022/09/02 21:00:02;;;;;;;2.9;8.7;;;;;;;13.4;100;98820;;;;
2022/09/02 21:11:02;;;;;;;2.9;8.7;;;;;;;13.3;100;98830;;;;
2022/09/02 21:21:02;;;;;;;2.9;8.7;;;;;;;13.2;100;98840;;;;
2022/09/02 21:31:02;;;;;;;2.5;6.2;;;;;;;13.1;100;98840;;;;
2022/09/02 21:42:02;;;;;;;2.5;6.2;;;;;;;12.9;100;98840;;;;
2022/09/02 21:53:02;;;;;;;2.5;6.2;;;;;;;12.7;100;98850;;;;
2022/09/02 22:03:02;;;;;;;2.3;4.2;;;;;;;12.4;100;98850;;;;
2022/09/02 22:13:02;;;;;;;2.3;4.2;;;;;;;12.3;100;98840;;;;
2022/09/02 22:23:02;;;;;;;2.3;4.2;;;;;;;12;100;98840;;;;
2022/09/02 22:34:02;;;;;;;2.3;5.3;;;;;;;12;100;98830;;;;
2022/09/02 22:55:02;;;;;;;2.3;5.3;;;;;;;11.8;100;98820;;;;
2022/09/02 23:06:02;;;;;;;2.7;7.3;;;;;;;11.9;100;98810;;;;
2022/09/02 23:16:03;;;;;;;2.7;7.3;;;;;;;11.9;100;98820;;;;
2022/09/02 23:27:02;;;;;;;2.7;7.3;;;;;;;11.7;100;98820;;;;
2022/09/02 23:37:03;;;;;;;3.3;6.5;;;;;;;11.5;100;98820;;;;
2022/09/02 23:47:02;;;;;;;3.3;6.5;;;;;;;11.5;100;98810;;;;
2022/09/02 23:57:02;;;;;;;3.3;6.5;;;;;;;11.3;100;98800;;;;
